KSTS/STS METAR and TAF weather

Enter ICAO airport designator
Station Type Date Time Source
KSTS METAR 2022/06/27 17:53 UTC NOAA

KSTS 271753Z 17006KT 10SM FEW011 18/12 A3009 RMK AO2 SLP182 T01830117 10183 20106 50001


Station Type Date Time Source
KSTS Decoded METAR 2022/06/27 17:53 UTC NOAA

SANTA ROSA SONOMA COUNTY, CA, United States (KSTS) 38-30N 122-49W 39M
Jun 27, 2022 - 01:53 PM EDT / 2022.06.27 1753 UTC
Wind: from the S (170 degrees) at 7 MPH (6 KT):0
Visibility: 10 mile(s):0
Sky conditions: mostly clear
Temperature: 64.9 F (18.3 C)
Dew Point: 53.1 F (11.7 C)
Relative Humidity: 65%
Pressure (altimeter): 30.09 in. Hg (1018 hPa)
Pressure tendency: 0.00 inches (0.1 hPa) higher than three hours ago
ob: KSTS 271753Z 17006KT 10SM FEW011 18/12 A3009 RMK AO2 SLP182 T01830117 10183 20106 50001
cycle: 18

Station Type Date Time Source
KSTS TAF 2022/06/27 18:42 UTC NOAA

TAF KSTS 271740Z 2718/2818 VRB04KT P6SM SKC
FM272200 24009KT P6SM SKC
FM280100 31014KT P6SM SKC
FM280400 VRB03KT P6SM SKC
TEMPO 2809/2813 3SM BR
FM281600 32009KT P6SM SKC

Example: see airport list